Time;durP1;ratioP1;P1;durP2;ratioP2;P2;SDS_P1;SDS_P2;PMS_P1;PMS_P2;Temp;Humidity;BMP_temperature;BMP_pressure;BME280_temperature;BME280_humidity;BME280_pressure;Samples;Min_cycle;Max_cycle;Signal;HPM_P1;HPM_P2
2022/03/30 00:01:41;;;;;;;53.07;26.33;;;2.20;99.90;;;;;;8409713;28;20206;-61
2022/03/30 00:05:42;;;;;;;57.20;28.17;;;2.30;99.90;;;;;;8452434;28;20206;-61
2022/03/30 00:09:43;;;;;;;54.43;26.87;;;2.30;99.90;;;;;;8430407;28;20216;-61
2022/03/30 00:13:43;;;;;;;43.40;24.23;;;2.20;99.90;;;;;;8407821;28;20314;-60
2022/03/30 00:17:45;;;;;;;46.67;25.73;;;2.00;99.90;;;;;;8408176;28;20483;-61
2022/03/30 00:21:46;;;;;;;49.17;24.47;;;1.80;99.90;;;;;;8412013;28;20204;-62
2022/03/30 00:25:47;;;;;;;39.30;22.43;;;1.60;99.90;;;;;;8406664;28;20211;-64
2022/03/30 00:29:48;;;;;;;42.63;21.50;;;1.50;99.90;;;;;;8437648;28;20415;-61
2022/03/30 00:33:51;;;;;;;39.67;20.17;;;1.30;99.90;;;;;;8435814;28;20202;-62
2022/03/30 00:37:52;;;;;;;41.40;22.47;;;1.20;99.90;;;;;;8407069;28;20615;-65
2022/03/30 00:41:53;;;;;;;38.57;20.40;;;1.20;99.90;;;;;;8410612;28;20198;-62
2022/03/30 00:45:55;;;;;;;42.57;20.33;;;1.10;99.90;;;;;;8407218;28;20213;-62
2022/03/30 00:49:56;;;;;;;47.17;22.17;;;1.10;99.90;;;;;;8411676;28;20214;-61
2022/03/30 00:53:57;;;;;;;52.97;27.33;;;1.00;99.90;;;;;;8404105;28;20378;-61
2022/03/30 00:57:58;;;;;;;48.93;26.00;;;0.90;99.90;;;;;;8408651;28;20202;-61
2022/03/30 01:02:00;;;;;;;38.57;21.67;;;0.80;99.90;;;;;;8427653;28;20216;-62
2022/03/30 01:06:02;;;;;;;45.37;23.60;;;0.70;99.90;;;;;;8398605;28;20226;-62
2022/03/30 01:10:04;;;;;;;46.17;23.20;;;0.50;99.90;;;;;;8421878;28;20221;-60
2022/03/30 01:14:05;;;;;;;46.13;22.33;;;0.40;99.90;;;;;;8409177;28;20205;-61
2022/03/30 01:18:06;;;;;;;45.87;22.97;;;0.40;99.90;;;;;;8424700;28;20220;-63
2022/03/30 01:22:07;;;;;;;46.83;22.70;;;0.30;99.90;;;;;;8406954;28;20216;-64
2022/03/30 01:26:08;;;;;;;45.70;23.17;;;0.20;99.90;;;;;;8436209;28;20199;-61
2022/03/30 01:34:34;;;;;;;54.77;23.60;;;0.10;99.90;;;;;;8434335;28;20218;-61
2022/03/30 01:38:35;;;;;;;42.37;22.37;;;0.00;99.90;;;;;;8405728;28;20204;-62
2022/03/30 01:42:36;;;;;;;42.40;21.83;;;-0.10;99.90;;;;;;8415717;28;20214;-61
2022/03/30 01:46:38;;;;;;;42.63;21.50;;;-0.20;99.90;;;;;;8422138;28;20204;-61
2022/03/30 01:50:39;;;;;;;45.43;20.50;;;-0.30;99.90;;;;;;8431855;28;20227;-61
2022/03/30 01:54:41;;;;;;;37.37;20.60;;;-0.40;99.90;;;;;;8432287;28;20226;-63
2022/03/30 01:58:44;;;;;;;42.97;20.93;;;-0.60;99.90;;;;;;8438162;28;20242;-61
2022/03/30 02:02:46;;;;;;;38.27;19.63;;;-0.70;99.90;;;;;;8435192;28;20223;-61
2022/03/30 02:06:46;;;;;;;37.67;18.57;;;-0.70;99.90;;;;;;8413490;28;20242;-62
2022/03/30 02:10:47;;;;;;;33.50;18.00;;;-0.90;99.90;;;;;;8396779;28;20255;-62
2022/03/30 02:14:51;;;;;;;37.77;18.17;;;-1.00;99.90;;;;;;8428535;28;20214;-61
2022/03/30 02:18:53;;;;;;;34.57;17.40;;;-1.10;99.90;;;;;;8420039;28;20229;-63
2022/03/30 02:22:54;;;;;;;51.10;25.60;;;-1.20;99.90;;;;;;8406794;28;20215;-61
2022/03/30 02:26:54;;;;;;;48.63;25.60;;;-1.20;99.90;;;;;;8404449;28;20251;-61
2022/03/30 02:30:55;;;;;;;46.93;21.90;;;-1.20;99.90;;;;;;8417485;28;20231;-60
2022/03/30 02:34:56;;;;;;;51.53;26.27;;;-1.10;99.90;;;;;;8414368;28;20235;-61
2022/03/30 02:38:57;;;;;;;42.87;22.27;;;-1.10;99.90;;;;;;8412139;28;20208;-61
2022/03/30 02:42:58;;;;;;;43.47;23.97;;;-1.20;99.90;;;;;;8412705;28;20213;-61
2022/03/30 02:47:00;;;;;;;44.50;23.37;;;-1.30;99.90;;;;;;8417336;28;20216;-63
2022/03/30 02:51:06;;;;;;;39.30;20.13;;;-1.40;99.90;;;;;;8408228;28;20552;-63
2022/03/30 02:55:07;;;;;;;37.37;18.50;;;-1.50;99.90;;;;;;8417224;28;20265;-61
2022/03/30 02:59:08;;;;;;;31.87;16.07;;;-1.70;99.90;;;;;;8436870;28;20212;-62
2022/03/30 03:03:10;;;;;;;32.07;16.33;;;-1.80;99.90;;;;;;8423252;28;20276;-61
2022/03/30 03:07:10;;;;;;;35.07;16.80;;;-1.90;99.90;;;;;;8414036;28;20193;-61
2022/03/30 03:11:11;;;;;;;30.77;15.70;;;-1.90;99.90;;;;;;8415627;28;20220;-62
2022/03/30 03:15:13;;;;;;;35.23;15.27;;;-2.00;99.90;;;;;;8430629;28;20199;-61
2022/03/30 03:19:14;;;;;;;34.50;15.47;;;-2.00;99.90;;;;;;8433297;28;20228;-61
2022/03/30 03:23:16;;;;;;;29.93;15.00;;;-2.00;99.90;;;;;;8403982;28;20212;-61
2022/03/30 03:27:17;;;;;;;33.07;16.77;;;-2.00;99.90;;;;;;8428335;28;20196;-61
2022/03/30 03:31:17;;;;;;;33.23;16.17;;;-2.00;99.90;;;;;;8429746;28;20227;-61
2022/03/30 03:35:19;;;;;;;36.53;16.87;;;-2.10;99.90;;;;;;8422630;28;20204;-62
2022/03/30 03:39:19;;;;;;;33.50;16.77;;;-2.10;99.90;;;;;;8408247;28;20243;-61
2022/03/30 03:43:20;;;;;;;35.07;15.97;;;-2.10;99.90;;;;;;8442481;28;20534;-61
2022/03/30 03:47:21;;;;;;;30.67;17.27;;;-2.20;99.90;;;;;;8425474;28;20204;-61
2022/03/30 03:51:23;;;;;;;46.23;21.27;;;-2.30;99.90;;;;;;8412232;28;20318;-61
2022/03/30 03:55:24;;;;;;;43.40;20.47;;;-2.20;99.90;;;;;;8421803;28;20387;-61
2022/03/30 03:59:25;;;;;;;37.13;18.17;;;-2.20;99.90;;;;;;8421529;28;20207;-62
2022/03/30 04:03:26;;;;;;;42.87;20.33;;;-2.20;99.90;;;;;;8416051;28;20275;-62
2022/03/30 04:07:27;;;;;;;38.80;18.33;;;-2.30;99.90;;;;;;8399877;28;20265;-61
2022/03/30 04:11:28;;;;;;;37.10;17.27;;;-2.30;99.90;;;;;;8419433;28;20223;-62
2022/03/30 04:15:29;;;;;;;36.13;17.00;;;-2.40;99.90;;;;;;8418983;28;20192;-61
2022/03/30 04:19:30;;;;;;;32.23;15.80;;;-2.40;99.90;;;;;;8417620;28;20235;-62
2022/03/30 04:23:31;;;;;;;31.20;15.73;;;-2.50;99.90;;;;;;8424718;28;20206;-61
2022/03/30 04:27:32;;;;;;;32.33;15.67;;;-2.60;99.90;;;;;;8438280;28;20307;-61
2022/03/30 04:31:34;;;;;;;30.37;16.87;;;-2.70;99.90;;;;;;8420847;28;20522;-61
2022/03/30 04:35:35;;;;;;;39.03;17.37;;;-2.70;99.90;;;;;;8417313;28;20203;-61
2022/03/30 04:39:36;;;;;;;35.30;17.17;;;-2.70;99.90;;;;;;8405051;28;20215;-61
2022/03/30 04:43:37;;;;;;;40.80;18.53;;;-2.70;99.90;;;;;;8421367;28;20291;-60
2022/03/30 04:47:38;;;;;;;33.80;17.93;;;-2.70;99.90;;;;;;8418359;28;20213;-60
2022/03/30 04:51:39;;;;;;;35.77;18.07;;;-2.70;99.90;;;;;;8415444;28;20313;-61
2022/03/30 04:55:39;;;;;;;33.70;16.57;;;-2.60;99.90;;;;;;8437246;28;20196;-60
2022/03/30 04:59:42;;;;;;;38.63;17.57;;;-2.40;99.90;;;;;;8420194;28;20214;-62
2022/03/30 05:03:43;;;;;;;34.47;16.77;;;-2.20;99.90;;;;;;8433830;28;20269;-61
2022/03/30 05:07:44;;;;;;;33.67;15.50;;;-2.00;99.90;;;;;;8417023;28;20204;-61
2022/03/30 05:11:45;;;;;;;37.43;17.70;;;-1.90;99.90;;;;;;8417936;28;20277;-61
2022/03/30 05:15:45;;;;;;;39.13;18.30;;;-1.80;99.90;;;;;;8426339;28;20504;-61
2022/03/30 05:19:46;;;;;;;38.57;18.53;;;-1.70;99.90;;;;;;8410598;28;20204;-62
2022/03/30 05:23:48;;;;;;;35.70;17.07;;;-1.70;99.90;;;;;;8407488;28;20204;-61
2022/03/30 05:27:48;;;;;;;37.63;18.67;;;-1.60;99.90;;;;;;8411457;28;20540;-60
2022/03/30 05:31:49;;;;;;;41.80;19.87;;;-1.40;99.90;;;;;;8419506;28;20225;-62
2022/03/30 05:35:51;;;;;;;41.37;18.83;;;-1.30;99.90;;;;;;8442993;28;20199;-61
2022/03/30 05:39:52;;;;;;;34.20;16.87;;;-1.10;99.90;;;;;;8421794;28;20253;-62
2022/03/30 05:43:53;;;;;;;42.33;19.80;;;-1.00;99.90;;;;;;8439908;28;20205;-61
2022/03/30 05:47:54;;;;;;;41.17;20.70;;;-0.80;99.90;;;;;;8416755;28;20208;-61
2022/03/30 05:51:55;;;;;;;39.90;20.70;;;-0.60;99.90;;;;;;8422177;28;20333;-63
2022/03/30 05:55:55;;;;;;;46.03;21.73;;;-0.50;99.90;;;;;;8423489;28;20211;-61
2022/03/30 05:59:58;;;;;;;45.03;22.13;;;-0.40;99.90;;;;;;8438528;28;20231;-61
2022/03/30 06:03:58;;;;;;;41.80;22.60;;;-0.30;99.90;;;;;;8431712;28;20195;-61
2022/03/30 06:08:00;;;;;;;50.77;22.97;;;-0.10;99.90;;;;;;8441743;28;20656;-62
2022/03/30 06:12:01;;;;;;;47.83;22.10;;;0.00;99.90;;;;;;8399570;28;20235;-60
2022/03/30 06:16:02;;;;;;;52.00;23.50;;;0.10;99.90;;;;;;8415668;28;20278;-61
2022/03/30 06:20:04;;;;;;;47.33;24.13;;;0.30;99.90;;;;;;8409900;28;20321;-60
2022/03/30 06:24:06;;;;;;;48.40;23.63;;;0.40;99.90;;;;;;8405943;28;20196;-62
2022/03/30 06:28:06;;;;;;;58.90;27.67;;;0.70;99.90;;;;;;8430363;28;20242;-63
2022/03/30 06:32:07;;;;;;;49.33;24.90;;;1.00;99.90;;;;;;8410421;28;20221;-61
2022/03/30 06:36:08;;;;;;;57.53;25.97;;;1.20;99.90;;;;;;8429880;28;20193;-62
2022/03/30 06:40:11;;;;;;;61.97;29.60;;;1.30;99.90;;;;;;8416157;28;20275;-62
2022/03/30 06:44:11;;;;;;;71.60;35.17;;;1.60;99.90;;;;;;8418641;28;20213;-62
2022/03/30 06:48:13;;;;;;;120.67;64.50;;;1.80;99.90;;;;;;8442304;28;20300;-61
2022/03/30 06:52:14;;;;;;;133.53;67.40;;;2.10;99.90;;;;;;8406112;28;20224;-60
2022/03/30 06:56:15;;;;;;;121.60;62.13;;;2.20;99.90;;;;;;8398251;28;20203;-62
2022/03/30 07:00:17;;;;;;;142.80;66.77;;;2.20;99.90;;;;;;8417336;28;20280;-61
2022/03/30 07:04:18;;;;;;;137.10;64.77;;;2.40;99.90;;;;;;8422884;28;20198;-61
2022/03/30 07:12:38;;;;;;;123.70;65.40;;;3.00;99.90;;;;;;8430960;28;20330;-61
2022/03/30 07:16:39;;;;;;;87.27;48.63;;;3.20;99.90;;;;;;8428281;28;20275;-63
2022/03/30 07:20:40;;;;;;;77.77;40.67;;;3.50;99.90;;;;;;8422266;28;20229;-62
2022/03/30 07:24:41;;;;;;;90.07;47.00;;;3.60;99.90;;;;;;8409726;28;20216;-62
2022/03/30 07:28:42;;;;;;;72.67;41.17;;;3.70;99.90;;;;;;8427959;28;20218;-62
2022/03/30 07:32:46;;;;;;;49.03;30.43;;;3.80;99.90;;;;;;8413813;28;20212;-61
2022/03/30 07:36:48;;;;;;;60.00;33.47;;;3.80;99.90;;;;;;8414853;28;20204;-62
2022/03/30 07:40:50;;;;;;;50.30;29.93;;;4.00;99.90;;;;;;8422902;28;20200;-63
2022/03/30 07:44:51;;;;;;;46.67;28.47;;;4.40;99.90;;;;;;8433874;28;20261;-62
2022/03/30 07:48:52;;;;;;;46.00;28.50;;;4.70;99.90;;;;;;8420451;28;20203;-61
2022/03/30 07:52:52;;;;;;;49.53;26.20;;;5.00;99.90;;;;;;8424147;28;20208;-61
2022/03/30 07:56:53;;;;;;;42.07;25.10;;;5.30;99.90;;;;;;8407506;28;20242;-61
2022/03/30 08:00:54;;;;;;;27.67;15.80;;;5.60;99.90;;;;;;8411377;28;20219;-61
2022/03/30 08:04:55;;;;;;;16.87;10.27;;;5.90;99.90;;;;;;8449539;28;20205;-60
2022/03/30 08:08:56;;;;;;;21.27;10.23;;;6.10;99.90;;;;;;8431595;28;20329;-60
2022/03/30 08:12:57;;;;;;;18.80;8.77;;;6.20;99.90;;;;;;8424394;28;20210;-60
2022/03/30 08:16:58;;;;;;;16.27;7.93;;;6.30;56.50;;;;;;8426483;28;20206;-62
2022/03/30 08:25:19;;;;;;;17.17;9.30;;;6.60;23.90;;;;;;8444814;28;20239;-60
2022/03/30 08:29:19;;;;;;;18.43;9.77;;;7.00;1.00;;;;;;8425879;28;20216;-61
2022/03/30 08:33:23;;;;;;;21.17;9.37;;;7.30;1.00;;;;;;8421512;28;20204;-61
2022/03/30 08:37:25;;;;;;;17.10;9.53;;;7.40;1.00;;;;;;8414174;28;20208;-62
2022/03/30 08:41:26;;;;;;;19.17;7.87;;;7.50;1.00;;;;;;8399370;28;20201;-60
2022/03/30 08:45:26;;;;;;;15.43;7.37;;;7.60;99.90;;;;;;8434173;28;20208;-63
2022/03/30 08:49:33;;;;;;;14.67;7.23;;;7.80;99.90;;;;;;8428161;28;20222;-63
2022/03/30 08:53:37;;;;;;;18.23;8.17;;;8.10;99.90;;;;;;8442750;28;20299;-62
2022/03/30 08:57:38;;;;;;;13.33;6.30;;;8.30;99.90;;;;;;8439792;28;20231;-60
2022/03/30 09:01:40;;;;;;;11.67;4.83;;;8.60;27.10;;;;;;8417471;28;20222;-60
2022/03/30 09:05:42;;;;;;;15.20;5.23;;;8.80;1.00;;;;;;8450339;28;20392;-61
2022/03/30 09:09:44;;;;;;;10.50;5.03;;;8.90;1.00;;;;;;8419710;28;20307;-58
2022/03/30 09:13:59;;;;;;;10.73;5.57;;;9.00;1.00;;;;;;8425240;28;20319;-62
2022/03/30 09:18:03;;;;;;;9.80;5.20;;;9.10;1.00;;;;;;8424140;28;20199;-61
2022/03/30 09:22:05;;;;;;;9.27;4.37;;;9.20;1.00;;;;;;8407913;28;20228;-61
2022/03/30 09:26:07;;;;;;;9.63;3.93;;;9.20;1.00;;;;;;8435783;28;20579;-62
2022/03/30 09:30:11;;;;;;;8.33;4.50;;;9.30;1.00;;;;;;8423631;28;20246;-61
2022/03/30 09:34:11;;;;;;;9.27;4.30;;;9.30;1.00;;;;;;8434618;28;20216;-62
2022/03/30 09:38:15;;;;;;;8.67;4.50;;;9.50;1.00;;;;;;8432388;28;20228;-61
2022/03/30 09:42:16;;;;;;;10.73;5.10;;;9.60;1.00;;;;;;8416386;28;20212;-61
2022/03/30 09:46:17;;;;;;;10.97;4.00;;;9.80;1.00;;;;;;8441354;28;20352;-60
2022/03/30 09:50:28;;;;;;;12.90;4.10;;;9.90;99.90;;;;;;8434300;28;20255;-61
2022/03/30 09:54:44;;;;;;;15.33;4.83;;;10.10;99.90;;;;;;8400094;28;20236;-62
2022/03/30 09:58:45;;;;;;;13.13;4.77;;;10.30;99.90;;;;;;8418911;28;20208;-61
2022/03/30 10:02:48;;;;;;;12.23;4.83;;;10.50;99.90;;;;;;8435929;28;20224;-62
2022/03/30 10:06:51;;;;;;;11.60;4.80;;;11.00;99.90;;;;;;8417767;28;20205;-61
2022/03/30 10:10:52;;;;;;;11.37;4.43;;;11.40;99.90;;;;;;8405948;28;20242;-63
2022/03/30 10:14:54;;;;;;;11.57;5.00;;;11.70;99.90;;;;;;8410675;28;20240;-60
2022/03/30 10:18:55;;;;;;;9.50;4.90;;;12.20;99.90;;;;;;8438236;28;20523;-62
2022/03/30 10:23:14;;;;;;;12.40;4.50;;;12.40;99.90;;;;;;8423355;28;20235;-60
2022/03/30 10:27:36;;;;;;;12.53;5.63;;;12.40;99.90;;;;;;8425237;28;20215;-61
2022/03/30 10:31:37;;;;;;;14.10;5.83;;;11.90;99.90;;;;;;8408443;28;20233;-62
2022/03/30 10:35:47;;;;;;;11.90;4.93;;;11.70;99.90;;;;;;8413512;28;20206;-61
2022/03/30 10:39:55;;;;;;;10.63;5.07;;;12.10;99.90;;;;;;8402408;28;20555;-61
2022/03/30 10:44:34;;;;;;;9.33;4.67;;;12.30;99.90;;;;;;8428262;28;20209;-61
2022/03/30 10:48:38;;;;;;;11.90;6.50;;;12.70;99.90;;;;;;8423300;28;20211;-60
2022/03/30 10:52:40;;;;;;;12.87;5.47;;;13.40;99.90;;;;;;8428179;28;20232;-63
2022/03/30 10:56:48;;;;;;;13.77;5.33;;;13.70;99.90;;;;;;8434327;28;20211;-61
2022/03/30 11:01:18;;;;;;;9.67;5.07;;;14.10;99.90;;;;;;8406035;28;20223;-61
2022/03/30 11:05:28;;;;;;;9.50;4.67;;;14.30;99.90;;;;;;8421144;28;20200;-61
2022/03/30 11:09:30;;;;;;;11.90;6.00;;;14.40;99.90;;;;;;8420889;28;20257;-61
2022/03/30 11:13:30;;;;;;;10.10;5.60;;;14.30;99.90;;;;;;8427947;28;20309;-61
2022/03/30 11:17:35;;;;;;;9.10;5.27;;;14.20;99.90;;;;;;8429073;28;20213;-61
2022/03/30 11:21:37;;;;;;;10.83;5.70;;;14.20;99.90;;;;;;8423575;28;20204;-62
2022/03/30 11:25:50;;;;;;;10.57;5.70;;;14.30;99.90;;;;;;8423150;28;20205;-61
2022/03/30 11:29:53;;;;;;;9.77;5.30;;;13.70;99.90;;;;;;8439460;28;20238;-61
2022/03/30 11:34:30;;;;;;;12.73;7.20;;;13.60;99.90;;;;;;8419156;28;20216;-61
2022/03/30 11:38:40;;;;;;;9.57;5.57;;;13.90;99.90;;;;;;8427199;28;20200;-61
2022/03/30 11:42:50;;;;;;;12.17;6.03;;;14.30;99.90;;;;;;8439317;28;20200;-61
2022/03/30 11:46:52;;;;;;;11.63;6.07;;;14.40;99.90;;;;;;8423684;28;20215;-62
2022/03/30 11:50:58;;;;;;;12.83;6.43;;;14.10;99.90;;;;;;8418154;28;20231;-62
2022/03/30 11:54:59;;;;;;;11.43;5.60;;;14.00;99.90;;;;;;8409841;28;20199;-62
2022/03/30 11:59:00;;;;;;;12.87;5.97;;;13.70;99.90;;;;;;8440986;28;20292;-63
2022/03/30 12:03:02;;;;;;;9.47;5.93;;;13.30;99.90;;;;;;8419093;28;20197;-63
2022/03/30 12:07:03;;;;;;;13.50;6.83;;;12.80;99.90;;;;;;8436377;28;20214;-62
2022/03/30 12:11:06;;;;;;;14.33;6.67;;;12.40;99.90;;;;;;8401027;28;20232;-61
2022/03/30 12:15:12;;;;;;;12.23;6.03;;;12.20;99.90;;;;;;8411783;28;20225;-61
2022/03/30 12:19:16;;;;;;;12.50;6.27;;;12.20;99.90;;;;;;8408394;28;20230;-61
2022/03/30 12:23:17;;;;;;;11.03;6.40;;;12.20;99.90;;;;;;8408595;28;20288;-60
2022/03/30 12:27:18;;;;;;;12.30;6.50;;;12.00;99.90;;;;;;8408564;28;20523;-60
2022/03/30 12:31:19;;;;;;;13.27;6.70;;;11.90;99.90;;;;;;8420424;28;20227;-61
2022/03/30 12:35:20;;;;;;;7.87;5.40;;;11.80;99.90;;;;;;8427501;28;20320;-62
2022/03/30 12:39:24;;;;;;;13.60;5.70;;;11.70;99.90;;;;;;8427656;28;20214;-63
2022/03/30 12:43:27;;;;;;;13.93;6.83;;;11.70;99.90;;;;;;8407847;28;20264;-61
2022/03/30 12:47:30;;;;;;;10.20;5.50;;;11.60;99.90;;;;;;8407737;28;20279;-61
2022/03/30 12:51:33;;;;;;;10.30;5.90;;;11.40;99.90;;;;;;8431362;28;20315;-63
2022/03/30 12:55:36;;;;;;;14.87;6.20;;;11.20;99.90;;;;;;8411575;28;20298;-60
2022/03/30 12:59:40;;;;;;;12.47;5.87;;;11.00;1.00;;;;;;8407738;28;20248;-63
2022/03/30 13:03:45;;;;;;;11.80;6.40;;;10.90;1.00;;;;;;8413966;28;20205;-60
2022/03/30 13:07:51;;;;;;;11.60;7.03;;;10.70;20.40;;;;;;8416928;28;20208;-63
2022/03/30 13:11:57;;;;;;;12.70;6.60;;;10.60;86.40;;;;;;8399000;28;20230;-61
2022/03/30 13:16:17;;;;;;;14.60;7.30;;;10.60;99.90;;;;;;8410900;28;20204;-61
2022/03/30 13:20:18;;;;;;;9.97;5.00;;;10.50;99.90;;;;;;8410899;28;20201;-62
2022/03/30 13:24:24;;;;;;;10.40;5.93;;;10.50;1.00;;;;;;8442555;28;20200;-61
2022/03/30 13:28:26;;;;;;;9.83;5.83;;;10.50;1.00;;;;;;8437386;28;20231;-62
2022/03/30 13:32:27;;;;;;;16.63;5.20;;;10.30;1.00;;;;;;8418727;28;20235;-62
2022/03/30 13:36:28;;;;;;;14.10;8.00;;;10.10;39.30;;;;;;8413288;28;20203;-63
2022/03/30 13:40:29;;;;;;;16.33;9.50;;;10.10;1.00;;;;;;8419259;28;20321;-61
2022/03/30 13:44:30;;;;;;;7.87;5.80;;;10.20;1.00;;;;;;8419182;28;20271;-62
2022/03/30 13:48:31;;;;;;;10.20;5.50;;;10.40;99.90;;;;;;8423237;28;20203;-62
2022/03/30 13:52:32;;;;;;;7.87;5.30;;;10.60;1.00;;;;;;8409265;28;20228;-60
2022/03/30 13:56:33;;;;;;;13.50;6.87;;;10.70;1.00;;;;;;8419257;28;20319;-63
2022/03/30 14:00:37;;;;;;;14.50;5.83;;;10.50;59.20;;;;;;8435613;28;20213;-61
2022/03/30 14:04:38;;;;;;;13.47;7.13;;;10.40;68.30;;;;;;8426140;28;20207;-61
2022/03/30 14:08:40;;;;;;;13.00;6.40;;;10.30;92.00;;;;;;8417102;28;20223;-62
2022/03/30 14:12:41;;;;;;;11.63;5.57;;;10.00;99.90;;;;;;8400194;28;20247;-61
2022/03/30 14:16:41;;;;;;;11.67;4.87;;;9.70;1.00;;;;;;8428929;28;20256;-62
2022/03/30 14:20:44;;;;;;;17.57;8.93;;;9.70;1.00;;;;;;8409071;28;20203;-60
2022/03/30 14:24:45;;;;;;;13.30;5.70;;;9.60;1.00;;;;;;8422001;28;20215;-60
2022/03/30 14:28:46;;;;;;;14.83;7.80;;;9.50;1.00;;;;;;8408561;28;20200;-63
2022/03/30 14:32:46;;;;;;;19.23;8.60;;;9.40;99.90;;;;;;8418667;28;20219;-61
2022/03/30 14:36:47;;;;;;;22.77;10.73;;;9.30;99.90;;;;;;8414955;28;20204;-61
2022/03/30 14:40:51;;;;;;;11.97;6.13;;;9.10;99.90;;;;;;8421211;28;20214;-59
2022/03/30 14:44:52;;;;;;;17.30;7.20;;;8.90;50.90;;;;;;8418393;28;20208;-60
2022/03/30 14:48:55;;;;;;;16.93;7.03;;;8.70;1.00;;;;;;8437120;28;20200;-59
2022/03/30 14:52:56;;;;;;;15.40;8.40;;;8.50;99.90;;;;;;8403849;28;20259;-61
2022/03/30 14:56:57;;;;;;;18.33;9.73;;;8.40;1.00;;;;;;8432654;28;20209;-61
2022/03/30 15:00:59;;;;;;;15.70;7.47;;;8.30;1.00;;;;;;8413525;28;20212;-61
2022/03/30 15:05:00;;;;;;;19.40;10.83;;;8.10;99.90;;;;;;8427923;28;20207;-60
2022/03/30 15:09:01;;;;;;;16.40;8.07;;;8.00;48.00;;;;;;8431237;28;20204;-60
2022/03/30 15:13:02;;;;;;;32.80;15.47;;;7.90;99.90;;;;;;8417640;28;20208;-62
2022/03/30 15:17:04;;;;;;;15.60;7.40;;;7.80;99.90;;;;;;8421186;28;20200;-63
2022/03/30 15:21:05;;;;;;;18.23;9.10;;;7.70;1.00;;;;;;8422414;28;20196;-62
2022/03/30 15:25:07;;;;;;;44.70;20.23;;;7.60;99.90;;;;;;8413702;28;20279;-63
2022/03/30 15:29:08;;;;;;;33.97;16.93;;;7.60;1.00;;;;;;8434098;28;20204;-62
2022/03/30 15:33:09;;;;;;;54.70;26.10;;;7.50;99.90;;;;;;8428543;28;20214;-61
2022/03/30 15:37:10;;;;;;;93.43;48.93;;;7.40;1.00;;;;;;8413443;28;20193;-62
2022/03/30 15:41:11;;;;;;;34.20;17.10;;;7.40;1.00;;;;;;8411092;28;20211;-61
2022/03/30 15:45:11;;;;;;;79.67;29.33;;;7.30;1.00;;;;;;8441184;28;20200;-63
2022/03/30 15:49:13;;;;;;;58.27;23.73;;;7.20;1.00;;;;;;8411728;28;20330;-62
2022/03/30 15:53:14;;;;;;;81.43;28.97;;;7.20;99.90;;;;;;8416821;28;20472;-63
2022/03/30 15:57:16;;;;;;;38.47;17.77;;;7.10;1.00;;;;;;8431198;28;20622;-63
2022/03/30 16:01:17;;;;;;;18.30;8.57;;;7.10;1.00;;;;;;8435765;28;20331;-61
2022/03/30 16:05:18;;;;;;;30.63;14.63;;;7.00;99.90;;;;;;8400262;28;20204;-61
2022/03/30 16:09:18;;;;;;;24.27;13.47;;;7.00;32.20;;;;;;8418561;28;20542;-61
2022/03/30 16:13:19;;;;;;;52.27;22.43;;;6.90;99.90;;;;;;8409748;28;20231;-64
2022/03/30 16:17:21;;;;;;;29.47;15.40;;;6.90;46.40;;;;;;8420089;28;20208;-62
2022/03/30 16:21:23;;;;;;;20.47;10.23;;;6.80;96.70;;;;;;8437365;28;20280;-62
2022/03/30 16:25:24;;;;;;;24.53;14.50;;;6.70;1.00;;;;;;8448058;28;20210;-61
2022/03/30 16:29:27;;;;;;;15.07;9.97;;;6.70;99.90;;;;;;8435201;28;20247;-62
2022/03/30 16:33:29;;;;;;;28.87;12.50;;;6.60;99.90;;;;;;8410926;28;20437;-62
2022/03/30 16:37:32;;;;;;;24.23;12.00;;;6.50;99.90;;;;;;8417746;28;20204;-62
2022/03/30 16:41:34;;;;;;;51.77;24.30;;;6.50;99.90;;;;;;8418283;28;20555;-62
2022/03/30 16:45:38;;;;;;;82.00;42.03;;;6.40;1.00;;;;;;8428845;28;20227;-62
2022/03/30 16:49:38;;;;;;;57.67;26.73;;;6.40;1.00;;;;;;8435338;28;20203;-63
2022/03/30 16:53:41;;;;;;;52.30;23.57;;;6.30;1.00;;;;;;8403692;28;20204;-63
2022/03/30 16:57:42;;;;;;;81.60;33.17;;;6.20;1.00;;;;;;8418323;28;20276;-61
2022/03/30 17:01:43;;;;;;;126.37;41.63;;;6.10;63.20;;;;;;8419366;28;20233;-62
2022/03/30 17:05:44;;;;;;;75.57;32.67;;;6.10;1.00;;;;;;8417424;28;20192;-62
2022/03/30 17:09:57;;;;;;;44.03;20.13;;;6.00;37.40;;;;;;8399257;28;20266;-62
2022/03/30 17:13:58;;;;;;;32.33;15.00;;;5.90;8.10;;;;;;8425073;28;20204;-62
2022/03/30 17:17:59;;;;;;;46.37;27.10;;;5.90;99.80;;;;;;8438565;28;20208;-62
2022/03/30 17:22:00;;;;;;;111.93;59.67;;;5.80;99.90;;;;;;8407693;28;20205;-64
2022/03/30 17:26:01;;;;;;;174.00;94.53;;;5.70;99.90;;;;;;8406187;28;20366;-62
2022/03/30 17:30:02;;;;;;;59.17;34.17;;;5.70;99.90;;;;;;8436376;28;20267;-61
2022/03/30 17:34:04;;;;;;;32.70;17.97;;;5.70;99.90;;;;;;8433930;28;20284;-60
2022/03/30 17:38:06;;;;;;;36.87;20.47;;;5.70;99.90;;;;;;8405743;28;20284;-62
2022/03/30 17:42:08;;;;;;;88.70;38.57;;;5.60;99.90;;;;;;8413220;28;20199;-63
2022/03/30 17:46:10;;;;;;;30.33;15.83;;;5.50;99.90;;;;;;8421870;28;20223;-61
2022/03/30 17:54:34;;;;;;;59.90;24.93;;;5.30;99.90;;;;;;8438783;28;20213;-61
2022/03/30 17:58:35;;;;;;;40.03;21.13;;;5.20;99.90;;;;;;8416509;28;20326;-62
2022/03/30 18:02:37;;;;;;;38.40;17.83;;;5.10;99.90;;;;;;8409966;28;20213;-62
2022/03/30 18:06:38;;;;;;;25.43;13.53;;;5.10;99.90;;;;;;8397647;28;20196;-61
2022/03/30 18:10:40;;;;;;;31.80;16.10;;;5.10;99.90;;;;;;8415670;28;20221;-63
2022/03/30 18:14:46;;;;;;;47.60;24.60;;;5.00;99.90;;;;;;8410426;28;20203;-65
2022/03/30 18:18:47;;;;;;;27.67;13.90;;;5.00;99.90;;;;;;8438358;28;20200;-60
2022/03/30 18:22:49;;;;;;;46.97;23.07;;;4.90;99.90;;;;;;8423848;28;20207;-62
2022/03/30 18:26:50;;;;;;;39.80;20.30;;;4.90;99.90;;;;;;8422458;28;20376;-63
2022/03/30 18:30:51;;;;;;;35.07;17.17;;;4.80;99.90;;;;;;8429618;28;20208;-61
2022/03/30 18:34:51;;;;;;;28.97;15.50;;;4.70;99.90;;;;;;8421238;28;20203;-61
2022/03/30 18:38:53;;;;;;;27.50;14.60;;;4.70;99.90;;;;;;8437340;28;20192;-62
2022/03/30 18:42:54;;;;;;;28.07;15.20;;;4.60;99.90;;;;;;8425055;28;20307;-62
2022/03/30 18:46:55;;;;;;;38.97;17.07;;;4.60;99.90;;;;;;8422871;28;20231;-63
2022/03/30 18:50:56;;;;;;;28.47;13.90;;;4.50;99.90;;;;;;8413670;28;20315;-61
2022/03/30 18:54:57;;;;;;;30.20;14.97;;;4.40;99.90;;;;;;8424258;28;20239;-62
2022/03/30 18:58:58;;;;;;;29.40;13.40;;;4.30;99.90;;;;;;8420757;28;20210;-62
2022/03/30 19:07:18;;;;;;;39.27;19.70;;;4.20;99.90;;;;;;8419518;28;20210;-62
2022/03/30 19:11:21;;;;;;;30.33;17.10;;;4.10;99.90;;;;;;8402906;28;20256;-61
2022/03/30 19:15:22;;;;;;;20.33;10.73;;;4.10;99.90;;;;;;8417312;28;20207;-61
2022/03/30 19:19:23;;;;;;;21.13;12.23;;;4.00;99.90;;;;;;8405030;28;20250;-61
2022/03/30 19:23:24;;;;;;;23.60;13.83;;;3.90;99.90;;;;;;8444663;28;20241;-61
2022/03/30 19:27:25;;;;;;;18.73;10.47;;;3.80;99.90;;;;;;8429493;28;20638;-60
2022/03/30 19:31:26;;;;;;;17.67;11.27;;;3.80;99.90;;;;;;8411847;28;20215;-63
2022/03/30 19:35:32;;;;;;;23.27;10.67;;;3.80;99.90;;;;;;8417503;28;20238;-63
2022/03/30 19:39:32;;;;;;;17.17;9.83;;;3.70;99.90;;;;;;8423951;28;20265;-62
2022/03/30 19:43:33;;;;;;;18.10;10.20;;;3.70;99.90;;;;;;8443169;28;20316;-62
2022/03/30 19:47:34;;;;;;;21.70;10.97;;;3.60;99.90;;;;;;8423416;28;20289;-61
2022/03/30 19:51:35;;;;;;;19.50;9.67;;;3.60;99.90;;;;;;8415937;28;20338;-63
2022/03/30 19:55:36;;;;;;;13.60;8.07;;;3.50;99.90;;;;;;8414226;28;20204;-62
2022/03/30 19:59:37;;;;;;;23.23;11.97;;;3.50;99.90;;;;;;8414824;28;20212;-61
2022/03/30 20:03:37;;;;;;;19.80;10.33;;;3.40;99.90;;;;;;8416188;28;20208;-63
2022/03/30 20:07:38;;;;;;;21.17;10.47;;;3.40;99.90;;;;;;8421830;28;20200;-61
2022/03/30 20:11:39;;;;;;;16.40;8.50;;;3.30;99.90;;;;;;8399950;28;20236;-59
2022/03/30 20:15:40;;;;;;;20.03;8.83;;;3.30;99.90;;;;;;8441611;28;20200;-62
2022/03/30 20:19:41;;;;;;;14.80;8.20;;;3.30;99.90;;;;;;8434760;28;20210;-61
2022/03/30 20:23:42;;;;;;;13.37;8.00;;;3.30;99.90;;;;;;8409324;28;20200;-60
2022/03/30 20:27:43;;;;;;;12.77;7.37;;;3.30;99.90;;;;;;8430913;28;20195;-61
2022/03/30 20:31:45;;;;;;;21.30;9.90;;;3.30;99.90;;;;;;8419850;28;20231;-61
2022/03/30 20:35:46;;;;;;;16.20;9.23;;;3.20;99.90;;;;;;8415422;28;20199;-62
2022/03/30 20:39:47;;;;;;;15.13;8.00;;;3.20;99.90;;;;;;8411978;28;20229;-61
2022/03/30 20:43:47;;;;;;;17.03;8.70;;;3.20;99.90;;;;;;8407969;28;20219;-63
2022/03/30 20:47:48;;;;;;;18.40;9.47;;;3.20;99.90;;;;;;8415782;28;20207;-62
2022/03/30 20:51:49;;;;;;;21.43;9.67;;;3.20;99.90;;;;;;8427880;28;20232;-60
2022/03/30 20:55:51;;;;;;;18.27;9.17;;;3.10;99.90;;;;;;8432077;28;20200;-61
2022/03/30 20:59:51;;;;;;;18.43;8.23;;;3.10;99.90;;;;;;8419228;28;20339;-61
2022/03/30 21:03:52;;;;;;;15.60;8.07;;;3.10;99.90;;;;;;8408124;28;20200;-63
2022/03/30 21:07:53;;;;;;;13.73;8.67;;;3.10;99.90;;;;;;8417867;28;20231;-61